Time;durP1;ratioP1;P1;durP2;ratioP2;P2;SDS_P1;SDS_P2;PMS_P1;PMS_P2;Temp;Humidity;BMP_temperature;BMP_pressure;BME280_temperature;BME280_humidity;BME280_pressure;Samples;Min_cycle;Max_cycle;Signal;HPM_P1;HPM_P2
2022/05/09 00:02:25;;;;;;;;;22.00;21.00;;;;;16.94;57.57;101901.47;5002702;28;45440;-88
2022/05/09 00:04:50;;;;;;;;;19.75;19.00;;;;;16.93;57.57;101903.28;5014651;28;45369;-89
2022/05/09 00:07:16;;;;;;;;;20.00;20.00;;;;;16.78;57.87;101880.91;4999215;28;47093;-88
2022/05/09 00:09:42;;;;;;;;;21.75;19.25;;;;;16.90;57.38;101894.53;5012330;28;45454;-89
2022/05/09 00:12:08;;;;;;;;;22.75;20.50;;;;;16.74;57.27;101882.06;4997484;28;45751;-89
2022/05/09 00:14:33;;;;;;;;;20.75;19.75;;;;;16.82;57.66;101912.03;5005463;28;45445;-89
2022/05/09 00:16:59;;;;;;;;;20.50;18.25;;;;;16.76;57.97;101890.91;5013534;28;48564;-90
2022/05/09 00:19:24;;;;;;;;;24.25;21.25;;;;;16.66;57.75;101884.34;5014059;28;45557;-90
2022/05/09 00:21:51;;;;;;;;;19.25;17.25;;;;;16.69;57.54;101888.66;5009087;28;45475;-88
2022/05/09 00:24:18;;;;;;;;;21.00;19.75;;;;;16.77;57.71;101902.50;5016156;28;45597;-89
2022/05/09 00:26:45;;;;;;;;;20.50;17.75;;;;;16.74;57.53;101894.59;5013440;28;45520;-88
2022/05/09 00:29:12;;;;;;;;;22.75;20.50;;;;;16.59;57.80;101880.31;5003161;28;45343;-88
2022/05/09 00:31:39;;;;;;;;;15.50;15.50;;;;;16.60;57.36;101887.44;5009540;28;45701;-87
2022/05/09 00:34:05;;;;;;;;;21.50;21.00;;;;;16.62;57.56;101890.91;5004498;28;45463;-89
2022/05/09 00:36:31;;;;;;;;;18.50;18.50;;;;;16.40;57.36;101860.00;4998028;28;45674;-89
2022/05/09 00:38:59;;;;;;;;;19.00;19.00;;;;;16.23;57.51;101840.50;5005033;28;45790;-89
2022/05/09 00:41:41;;;;;;;;;14.75;14.75;;;;;16.32;57.88;101877.53;5013768;28;45282;-90
2022/05/09 00:44:17;;;;;;;;;17.00;15.00;;;;;16.30;57.97;101890.22;5014808;28;46245;-90
2022/05/09 00:46:46;;;;;;;;;17.25;17.25;;;;;16.19;58.08;101880.13;5016617;28;48179;-90
2022/05/09 00:49:24;;;;;;;;;20.25;19.25;;;;;16.26;57.97;101886.88;5016920;28;45430;-91
2022/05/09 00:52:16;;;;;;;;;19.00;16.75;;;;;16.23;58.03;101894.22;5017794;28;45592;-91
2022/05/09 00:54:47;;;;;;;;;16.00;16.00;;;;;16.01;58.02;101860.63;5011711;28;45230;-91
2022/05/09 00:57:38;;;;;;;;;22.50;18.25;;;;;16.16;57.82;101888.38;5018434;28;48162;-90
2022/05/09 01:00:09;;;;;;;;;16.75;16.75;;;;;16.09;57.82;101881.63;5010824;28;45463;-91
2022/05/09 01:02:37;;;;;;;;;21.00;16.25;;;;;16.07;57.88;101887.13;5013502;28;45306;-91
2022/05/09 01:05:03;;;;;;;;;19.50;17.50;;;;;16.01;58.09;101890.16;5013861;28;45562;-89
2022/05/09 01:07:30;;;;;;;;;17.25;14.75;;;;;16.00;57.96;101888.44;5015479;28;46195;-88
2022/05/09 01:09:57;;;;;;;;;17.75;16.00;;;;;15.93;58.13;101882.56;5016588;28;46128;-86
2022/05/09 01:12:28;;;;;;;;;14.50;12.00;;;;;15.90;58.15;101888.16;5009109;28;45526;-88
2022/05/09 01:14:54;;;;;;;;;15.00;15.00;;;;;15.85;58.08;101882.19;5004151;28;45435;-88
2022/05/09 01:17:22;;;;;;;;;21.00;16.00;;;;;15.82;58.43;101882.34;5014759;28;46059;-88
2022/05/09 01:19:48;;;;;;;;;17.75;16.00;;;;;15.54;58.22;101851.75;5017203;28;45548;-88
2022/05/09 01:22:26;;;;;;;;;11.00;11.00;;;;;15.65;58.32;101863.69;5016001;28;45607;-88
2022/05/09 01:24:53;;;;;;;;;15.25;14.50;;;;;15.67;58.33;101878.72;5013674;28;45464;-89
2022/05/09 01:27:19;;;;;;;;;14.25;13.25;;;;;15.68;58.21;101877.78;5015602;28;45505;-89
2022/05/09 01:29:56;;;;;;;;;13.50;12.75;;;;;15.65;58.17;101891.38;5004711;28;45941;-89
2022/05/09 01:32:34;;;;;;;;;15.25;12.25;;;;;15.60;58.18;101887.25;5008561;28;45329;-89
2022/05/09 01:35:06;;;;;;;;;16.50;13.25;;;;;15.18;58.59;101833.31;5002247;28;45358;-89
2022/05/09 01:37:33;;;;;;;;;15.50;14.25;;;;;15.46;58.56;101888.03;5009798;28;46372;-89
2022/05/09 01:39:58;;;;;;;;;20.75;18.00;;;;;15.38;58.83;101876.91;5001118;28;45354;-89
2022/05/09 01:42:24;;;;;;;;;15.50;14.25;;;;;15.37;58.76;101881.41;5011880;28;45778;-89
2022/05/09 01:44:50;;;;;;;;;12.75;12.75;;;;;15.32;58.26;101872.75;5006065;28;45540;-88
2022/05/09 01:49:59;;;;;;;;;17.00;13.00;;;;;15.28;58.32;101865.84;5011101;28;45560;-88
2022/05/09 01:52:26;;;;;;;;;15.50;14.25;;;;;15.32;58.51;101884.38;5014501;28;45854;-87
2022/05/09 01:54:52;;;;;;;;;13.25;13.25;;;;;15.20;58.57;101868.09;5005214;28;45620;-88
2022/05/09 01:57:17;;;;;;;;;13.50;13.50;;;;;15.29;58.53;101883.66;5014967;28;46468;-88
2022/05/09 01:59:44;;;;;;;;;13.00;11.50;;;;;15.22;58.38;101883.13;5001780;28;45357;-88
2022/05/09 02:02:14;;;;;;;;;16.25;13.50;;;;;15.21;58.99;101883.25;5007087;28;45391;-88
2022/05/09 02:04:40;;;;;;;;;13.00;12.00;;;;;15.20;58.32;101879.72;5019969;28;45474;-89
2022/05/09 02:07:09;;;;;;;;;12.25;11.50;;;;;15.03;58.15;101859.22;5021620;28;46089;-87
2022/05/09 02:09:39;;;;;;;;;12.00;11.25;;;;;15.10;58.31;101874.00;5017628;28;46239;-87
2022/05/09 02:12:05;;;;;;;;;11.25;11.25;;;;;15.08;58.29;101870.53;5014516;28;45417;-87
2022/05/09 02:14:30;;;;;;;;;11.75;11.75;;;;;15.04;58.39;101877.00;5015572;28;45618;-88
2022/05/09 02:16:56;;;;;;;;;11.00;11.00;;;;;15.01;58.31;101876.31;5016182;28;52044;-88
2022/05/09 02:19:21;;;;;;;;;12.00;10.50;;;;;14.91;58.62;101858.09;5005549;28;45283;-87
2022/05/09 02:21:46;;;;;;;;;10.75;10.75;;;;;14.86;58.60;101861.97;5013457;28;47138;-88
2022/05/09 02:24:12;;;;;;;;;14.25;12.25;;;;;14.83;58.69;101854.09;5006131;28;45481;-88
2022/05/09 02:26:37;;;;;;;;;9.00;9.00;;;;;14.77;58.53;101843.69;5009189;28;45479;-88
2022/05/09 02:29:03;;;;;;;;;9.00;9.00;;;;;14.80;58.52;101868.53;5001495;28;45452;-88
2022/05/09 02:31:30;;;;;;;;;11.00;9.50;;;;;14.72;58.79;101862.75;5012034;28;45877;-88
2022/05/09 02:33:56;;;;;;;;;11.00;9.75;;;;;14.75;58.34;101861.72;5008969;28;45549;-88
2022/05/09 02:36:21;;;;;;;;;9.50;9.25;;;;;14.63;58.73;101850.72;5005430;28;46489;-88
2022/05/09 02:38:46;;;;;;;;;14.75;13.25;;;;;14.70;58.74;101868.19;5004880;28;45583;-88
2022/05/09 02:41:12;;;;;;;;;11.00;11.00;;;;;14.73;58.59;101877.88;5015588;28;45409;-89
2022/05/09 02:43:37;;;;;;;;;11.00;10.00;;;;;14.71;58.48;101874.41;5005857;28;45605;-88
2022/05/09 02:46:05;;;;;;;;;10.00;8.50;;;;;14.59;59.01;101851.81;5014219;28;45412;-88
2022/05/09 02:48:35;;;;;;;;;6.50;5.25;;;;;14.67;58.51;101859.44;5010663;28;45401;-87
2022/05/09 02:51:02;;;;;;;;;9.50;9.50;;;;;14.68;58.21;101871.91;5013899;28;45662;-87
2022/05/09 02:53:27;;;;;;;;;8.50;8.50;;;;;14.65;58.35;101874.75;5002431;28;45385;-88
2022/05/09 02:55:53;;;;;;;;;10.25;9.75;;;;;14.53;58.42;101849.47;4998806;28;51193;-87
2022/05/09 02:58:18;;;;;;;;;9.25;8.50;;;;;14.62;58.55;101869.53;4999297;28;48351;-88
2022/05/09 03:00:43;;;;;;;;;11.00;10.00;;;;;14.36;58.61;101831.63;5008571;28;48775;-88
2022/05/09 03:05:54;;;;;;;;;12.00;10.25;;;;;14.41;58.60;101848.31;4951165;28;45972;-87
2022/05/09 03:08:20;;;;;;;;;13.25;12.25;;;;;14.31;58.77;101835.50;4952041;28;45476;-88
2022/05/09 03:10:45;;;;;;;;;10.75;10.00;;;;;14.37;58.80;101845.88;4955048;28;45536;-88
2022/05/09 03:13:12;;;;;;;;;10.00;10.00;;;;;14.47;58.88;101871.22;4951818;28;45625;-87
2022/05/09 03:15:42;;;;;;;;;10.00;10.00;;;;;14.40;58.96;101865.31;4953003;28;45726;-88
2022/05/09 03:18:08;;;;;;;;;11.75;8.75;;;;;14.35;59.01;101863.84;4952937;28;45497;-88
2022/05/09 03:20:34;;;;;;;;;10.25;10.25;;;;;14.34;59.08;101856.78;4947403;28;45411;-88
2022/05/09 03:23:04;;;;;;;;;11.50;10.50;;;;;14.21;59.12;101844.00;4954775;28;45796;-87
2022/05/09 03:25:30;;;;;;;;;7.50;7.00;;;;;14.31;59.05;101860.50;4952770;28;45560;-88
2022/05/09 03:27:57;;;;;;;;;9.25;9.00;;;;;14.20;59.37;101844.97;4952889;28;45644;-88
2022/05/09 03:30:24;;;;;;;;;8.75;8.25;;;;;14.21;59.23;101844.00;4953040;28;45536;-88
2022/05/09 03:32:50;;;;;;;;;14.00;13.50;;;;;14.11;59.46;101833.91;4951127;28;45633;-88
2022/05/09 03:35:15;;;;;;;;;12.00;11.25;;;;;14.11;59.59;101844.59;4953413;28;46276;-89
2022/05/09 03:37:41;;;;;;;;;8.75;8.25;;;;;14.03;59.77;101835.16;4952213;28;45387;-88
2022/05/09 03:40:07;;;;;;;;;13.00;9.75;;;;;14.21;59.39;101865.44;4947251;28;45478;-88
2022/05/09 03:42:32;;;;;;;;;11.75;10.25;;;;;14.15;59.62;101860.44;4966500;28;45561;-88
2022/05/09 03:44:57;;;;;;;;;11.50;10.00;;;;;13.89;59.76;101821.66;4995355;28;46426;-87
2022/05/09 03:47:23;;;;;;;;;11.25;10.50;;;;;13.93;59.73;101833.94;4995451;28;45416;-86
2022/05/09 03:49:48;;;;;;;;;11.25;11.00;;;;;13.92;59.83;101834.00;4996125;28;45347;-86
2022/05/09 03:52:14;;;;;;;;;11.00;9.50;;;;;14.02;59.97;101860.22;4995147;28;45432;-86
2022/05/09 03:54:39;;;;;;;;;11.25;10.00;;;;;13.93;60.05;101847.31;4995037;28;49774;-86
2022/05/09 03:57:05;;;;;;;;;14.25;11.50;;;;;13.88;60.49;101849.38;4995374;28;45544;-87
2022/05/09 03:59:32;;;;;;;;;15.75;13.75;;;;;13.88;60.81;101861.88;4995314;28;45504;-87
2022/05/09 04:01:57;;;;;;;;;12.75;11.25;;;;;13.52;60.54;101809.34;4982990;28;45424;-87
2022/05/09 04:04:23;;;;;;;;;12.50;12.50;;;;;13.86;60.60;101856.63;4989726;28;45437;-87
2022/05/09 04:06:51;;;;;;;;;11.00;11.00;;;;;13.81;60.92;101864.88;4990513;28;45528;-88
2022/05/09 04:09:17;;;;;;;;;12.25;11.25;;;;;13.67;61.02;101843.31;4993771;28;45255;-88
2022/05/09 04:11:42;;;;;;;;;14.25;10.25;;;;;13.84;60.82;101867.38;4993982;28;45491;-88
2022/05/09 04:14:07;;;;;;;;;13.00;10.00;;;;;13.85;60.73;101870.91;4992691;28;56971;-87
2022/05/09 04:16:51;;;;;;;;;11.50;11.50;;;;;13.67;61.40;101855.84;4993663;28;47285;-86
2022/05/09 04:19:20;;;;;;;;;15.00;13.25;;;;;13.76;61.31;101874.09;4994930;28;45463;-87
2022/05/09 04:21:46;;;;;;;;;15.00;10.75;;;;;13.54;61.58;101845.75;5007109;28;45338;-88
2022/05/09 04:24:12;;;;;;;;;14.00;11.50;;;;;13.55;61.70;101854.66;5015040;28;45997;-87
2022/05/09 04:26:38;;;;;;;;;12.00;10.00;;;;;13.64;61.95;101865.75;4994722;28;45634;-86
2022/05/09 04:29:03;;;;;;;;;14.00;11.25;;;;;13.63;62.00;101855.09;5014231;28;45501;-86
2022/05/09 04:31:30;;;;;;;;;11.50;11.50;;;;;13.62;61.94;101864.09;5013997;28;45481;-86
2022/05/09 04:33:58;;;;;;;;;14.75;14.25;;;;;13.42;62.03;101841.00;5010617;28;45914;-86
2022/05/09 04:36:26;;;;;;;;;13.00;13.00;;;;;13.58;62.04;101868.72;5005531;28;45488;-87
2022/05/09 04:38:52;;;;;;;;;16.00;14.00;;;;;13.57;62.29;101868.81;5004664;28;45432;-86
2022/05/09 04:41:19;;;;;;;;;19.50;15.25;;;;;13.52;61.90;101869.03;5014740;28;45622;-86
2022/05/09 04:43:46;;;;;;;;;15.25;14.00;;;;;13.50;62.50;101878.09;5013192;28;45387;-86
2022/05/09 04:46:12;;;;;;;;;18.75;17.00;;;;;13.54;62.37;101859.13;5012615;28;45434;-88
2022/05/09 04:48:40;;;;;;;;;16.25;14.00;;;;;13.51;62.17;101855.72;5013489;28;45303;-87
2022/05/09 04:51:06;;;;;;;;;20.50;20.00;;;;;13.52;62.16;101852.13;5013356;28;45380;-89
2022/05/09 04:53:32;;;;;;;;;15.25;13.75;;;;;13.46;62.31;101849.75;5013735;28;47207;-89
2022/05/09 04:55:58;;;;;;;;;15.50;12.50;;;;;13.45;62.51;101850.72;5013942;28;45462;-87
2022/05/09 04:58:24;;;;;;;;;15.50;14.75;;;;;13.50;62.68;101870.94;5014007;28;45577;-88
2022/05/09 05:00:49;;;;;;;;;19.25;18.25;;;;;13.37;62.66;101865.34;5012951;28;45552;-89
2022/05/09 05:03:15;;;;;;;;;23.25;16.75;;;;;13.35;62.90;101869.88;5005733;28;45516;-88
2022/05/09 05:05:42;;;;;;;;;17.25;15.00;;;;;13.48;62.87;101871.94;5013423;28;45549;-86
2022/05/09 05:08:07;;;;;;;;;19.00;15.25;;;;;13.50;62.83;101862.91;5013649;28;45381;-88
2022/05/09 05:10:33;;;;;;;;;17.25;16.25;;;;;13.32;62.82;101837.91;5014243;28;45370;-88
2022/05/09 05:13:02;;;;;;;;;15.75;14.25;;;;;13.37;62.65;101837.69;5010927;28;45392;-88
2022/05/09 05:15:27;;;;;;;;;15.75;14.75;;;;;13.53;62.52;101860.06;5013926;28;45456;-88
2022/05/09 05:17:53;;;;;;;;;18.00;15.00;;;;;13.38;63.07;101850.16;5013694;28;45504;-90
2022/05/09 05:20:19;;;;;;;;;15.00;15.00;;;;;13.50;62.59;101878.94;5014304;28;45443;-88
2022/05/09 05:22:47;;;;;;;;;18.00;15.75;;;;;13.51;62.95;101878.00;5003254;28;45994;-88
2022/05/09 05:25:15;;;;;;;;;21.00;18.50;;;;;13.54;62.65;101879.66;4993635;28;45860;-89
2022/05/09 05:27:41;;;;;;;;;14.75;14.75;;;;;13.57;62.92;101876.84;5012517;28;45522;-89
2022/05/09 05:30:07;;;;;;;;;15.25;15.25;;;;;13.55;62.78;101876.91;5014885;28;45531;-88
2022/05/09 05:32:36;;;;;;;;;18.75;15.00;;;;;13.53;62.49;101865.41;5001589;28;46855;-88
2022/05/09 05:35:06;;;;;;;;;18.50;16.25;;;;;13.64;62.68;101878.25;5013782;28;45484;-89
2022/05/09 05:37:33;;;;;;;;;19.75;16.75;;;;;13.58;62.12;101868.72;5016678;28;45346;-88
2022/05/09 05:40:00;;;;;;;;;17.25;16.25;;;;;13.60;62.45;101874.84;5017206;28;45420;-88
2022/05/09 05:42:26;;;;;;;;;19.25;16.25;;;;;13.68;62.51;101884.31;4999200;28;47470;-87
2022/05/09 05:44:52;;;;;;;;;14.75;13.00;;;;;13.56;62.47;101872.41;5017123;28;45302;-87
2022/05/09 05:47:18;;;;;;;;;18.50;16.00;;;;;13.51;62.39;101867.28;5016958;28;45391;-88
2022/05/09 05:49:44;;;;;;;;;16.00;15.25;;;;;13.72;62.43;101884.06;5015530;28;45322;-88
2022/05/09 05:52:11;;;;;;;;;22.25;20.00;;;;;13.75;62.22;101888.41;5016635;28;46229;-88
2022/05/09 05:54:40;;;;;;;;;20.75;17.25;;;;;13.68;62.56;101877.13;5016973;28;45440;-88
2022/05/09 05:57:07;;;;;;;;;17.25;14.75;;;;;13.70;62.28;101866.38;5017123;28;45360;-89
2022/05/09 05:59:32;;;;;;;;;20.00;19.50;;;;;13.79;62.50;101881.97;5000931;28;45645;-88
2022/05/09 06:01:58;;;;;;;;;17.25;17.25;;;;;13.84;62.14;101882.59;5017387;28;45433;-89
2022/05/09 06:04:24;;;;;;;;;17.00;17.00;;;;;13.80;62.20;101875.66;5016607;28;45469;-89
2022/05/09 06:06:49;;;;;;;;;13.00;12.00;;;;;13.81;62.48;101870.22;5016990;28;45322;-89
2022/05/09 06:09:15;;;;;;;;;15.25;15.25;;;;;13.89;62.47;101880.53;5016555;28;45560;-89
2022/05/09 06:11:42;;;;;;;;;19.50;15.25;;;;;13.85;62.33;101868.25;5016698;28;45580;-89
2022/05/09 06:14:10;;;;;;;;;20.25;18.50;;;;;14.01;62.09;101895.97;5016949;28;45413;-89
2022/05/09 06:16:36;;;;;;;;;16.00;14.25;;;;;14.00;62.01;101893.38;5016969;28;45501;-88
2022/05/09 06:19:02;;;;;;;;;17.75;16.25;;;;;14.03;61.76;101891.38;5015249;28;45649;-89
2022/05/09 06:21:27;;;;;;;;;18.25;16.25;;;;;13.95;62.08;101876.66;5016280;28;45342;-90
2022/05/09 06:23:53;;;;;;;;;20.00;17.50;;;;;14.10;61.66;101891.94;4998619;28;45569;-89
2022/05/09 06:26:20;;;;;;;;;18.00;16.75;;;;;14.18;61.90;101899.56;5016926;28;45365;-89
2022/05/09 06:28:46;;;;;;;;;20.25;17.00;;;;;14.22;61.57;101907.38;5015011;28;45540;-89
2022/05/09 06:31:11;;;;;;;;;17.75;16.75;;;;;14.25;61.93;101896.47;5016383;28;45949;-90
2022/05/09 06:33:37;;;;;;;;;20.50;19.25;;;;;14.30;61.45;101903.41;5016553;28;46914;-90
2022/05/09 06:36:03;;;;;;;;;18.50;16.25;;;;;14.29;60.79;101910.59;5016739;28;45566;-89
2022/05/09 06:38:29;;;;;;;;;21.75;17.75;;;;;14.37;61.04;101905.69;5017934;28;45430;-88
2022/05/09 06:40:54;;;;;;;;;18.25;17.75;;;;;14.43;61.46;101915.19;5008454;28;46309;-89
2022/05/09 06:43:23;;;;;;;;;14.50;13.50;;;;;14.41;61.03;101898.38;5023768;28;45481;-89
2022/05/09 06:45:51;;;;;;;;;18.25;17.50;;;;;14.56;61.14;101905.59;5025609;28;45412;-88
2022/05/09 06:48:17;;;;;;;;;17.50;17.00;;;;;14.67;60.31;101910.34;5017818;28;45325;-89
2022/05/09 06:50:42;;;;;;;;;19.75;18.25;;;;;14.68;60.54;101901.38;5017451;28;45455;-88
2022/05/09 06:53:09;;;;;;;;;16.00;16.00;;;;;14.76;60.63;101914.34;5017309;28;45381;-89
2022/05/09 06:55:35;;;;;;;;;20.75;18.75;;;;;14.78;60.33;101912.47;5016621;28;45607;-88
2022/05/09 06:58:06;;;;;;;;;19.75;19.00;;;;;14.84;60.25;101909.44;4998968;28;45507;-89
2022/05/09 07:00:31;;;;;;;;;18.75;17.75;;;;;14.84;59.74;101918.38;5015786;28;46334;-89
2022/05/09 07:02:56;;;;;;;;;21.25;17.25;;;;;14.91;59.97;101918.88;5016617;28;45503;-89
2022/05/09 07:05:22;;;;;;;;;22.50;19.50;;;;;14.87;59.91;101893.19;5016016;28;45488;-89
2022/05/09 07:07:48;;;;;;;;;22.50;19.75;;;;;14.99;59.94;101910.41;5016483;28;45757;-89
2022/05/09 07:10:15;;;;;;;;;21.50;20.75;;;;;14.96;60.11;101900.72;5015539;28;46214;-88
2022/05/09 07:12:45;;;;;;;;;18.00;18.00;;;;;15.03;59.95;101903.91;5015475;28;45367;-88
2022/05/09 07:15:14;;;;;;;;;17.50;17.00;;;;;15.08;59.56;101886.63;5015780;28;45583;-88
2022/05/09 07:17:39;;;;;;;;;21.50;18.25;;;;;15.26;59.14;101913.34;5015905;28;45436;-88
2022/05/09 07:20:05;;;;;;;;;20.25;20.25;;;;;15.19;59.30;101895.88;5015854;28;47104;-88
2022/05/09 07:22:31;;;;;;;;;17.25;16.25;;;;;15.31;59.56;101912.13;5015447;28;45420;-88
2022/05/09 07:24:56;;;;;;;;;22.00;20.75;;;;;15.24;59.60;101886.59;5015308;28;45551;-88
2022/05/09 07:27:21;;;;;;;;;21.00;19.00;;;;;15.43;59.93;101907.00;5015383;28;45481;-89
2022/05/09 07:29:47;;;;;;;;;20.25;20.00;;;;;15.46;59.33;101912.19;5015475;28;46435;-88
2022/05/09 07:32:12;;;;;;;;;18.25;17.00;;;;;15.47;59.84;101895.16;4997672;28;45440;-88
2022/05/09 07:34:38;;;;;;;;;21.00;19.75;;;;;15.63;59.31;101914.75;5015670;28;45473;-89
2022/05/09 07:37:03;;;;;;;;;21.50;18.75;;;;;15.65;58.60;101910.16;5015496;28;45810;-88
2022/05/09 07:39:28;;;;;;;;;25.75;22.50;;;;;15.59;58.31;101889.06;5015005;28;46607;-89
2022/05/09 07:41:54;;;;;;;;;25.00;19.50;;;;;15.75;58.52;101900.66;5015330;28;45386;-88
2022/05/09 07:44:19;;;;;;;;;21.75;20.75;;;;;15.90;58.24;101917.69;5015320;28;45835;-88
2022/05/09 07:46:44;;;;;;;;;24.50;21.75;;;;;15.98;57.94;101906.47;5016114;28;45460;-88
2022/05/09 07:49:10;;;;;;;;;20.50;17.50;;;;;16.06;57.64;101914.94;5014998;28;45991;-87
2022/05/09 07:51:37;;;;;;;;;22.50;19.75;;;;;15.81;57.71;101869.91;4996627;28;50207;-88
2022/05/09 07:54:03;;;;;;;;;22.00;22.00;;;;;16.03;57.92;101893.63;4997463;28;45611;-89
2022/05/09 07:56:28;;;;;;;;;20.75;18.75;;;;;16.25;57.78;101920.03;5015109;28;45448;-88
2022/05/09 07:58:53;;;;;;;;;33.50;24.50;;;;;16.12;56.67;101890.38;5014373;28;45955;-89
2022/05/09 08:01:19;;;;;;;;;20.75;20.00;;;;;16.26;56.86;101900.28;5014896;28;48491;-87
2022/05/09 08:03:44;;;;;;;;;22.50;20.00;;;;;16.44;57.43;101910.88;5015243;28;45522;-88
2022/05/09 08:06:10;;;;;;;;;21.50;19.75;;;;;16.49;57.79;101906.06;5015499;28;45539;-88
2022/05/09 08:08:36;;;;;;;;;21.50;19.50;;;;;16.56;57.27;101910.09;4997134;28;47500;-88
2022/05/09 08:11:02;;;;;;;;;22.25;20.75;;;;;16.60;57.18;101904.44;5015785;28;45449;-88
2022/05/09 08:13:32;;;;;;;;;23.00;22.25;;;;;16.60;57.24;101895.50;5014580;28;45578;-87
2022/05/09 08:15:59;;;;;;;;;21.75;20.75;;;;;16.70;56.82;101906.53;5014598;28;45530;-87
2022/05/09 08:18:25;;;;;;;;;25.50;21.75;;;;;16.76;57.21;101904.34;5014674;28;46013;-87
2022/05/09 08:20:51;;;;;;;;;20.25;18.75;;;;;16.82;57.26;101906.66;5014457;28;45511;-87
2022/05/09 08:23:18;;;;;;;;;24.00;22.50;;;;;16.93;56.26;101913.16;4996903;28;45345;-86
2022/05/09 08:25:47;;;;;;;;;21.75;21.25;;;;;16.98;56.35;101909.22;5014954;28;45251;-87
2022/05/09 08:28:15;;;;;;;;;26.50;23.00;;;;;16.96;55.97;101908.47;5013121;28;46713;-87
2022/05/09 08:30:41;;;;;;;;;23.25;21.50;;;;;17.06;55.88;101911.44;5014291;28;45444;-87
2022/05/09 08:33:14;;;;;;;;;18.25;16.25;;;;;17.13;56.16;101917.28;5014528;28;45341;-87
2022/05/09 08:35:40;;;;;;;;;19.00;17.00;;;;;17.09;56.01;101884.31;4999605;28;45417;-87
2022/05/09 08:38:05;;;;;;;;;18.75;17.75;;;;;17.29;56.48;101917.97;5014634;28;45476;-87
2022/05/09 08:40:59;;;;;;;;;37.50;35.25;;;;;17.30;56.09;101894.66;5014451;28;50915;-86
2022/05/09 08:43:27;;;;;;;;;25.50;21.75;;;;;17.47;55.52;101905.16;5014278;28;45433;-87
2022/05/09 08:46:13;;;;;;;;;23.50;21.25;;;;;17.52;55.67;101902.16;5014028;28;45543;-87
2022/05/09 08:49:08;;;;;;;;;21.50;20.50;;;;;17.63;55.74;101897.78;5013848;28;47470;-87
2022/05/09 08:52:09;;;;;;;;;19.25;19.25;;;;;17.66;55.21;101888.63;5014287;28;45246;-88
2022/05/09 08:54:35;;;;;;;;;20.00;19.75;;;;;17.59;54.89;101873.84;4933662;28;45617;-85
2022/05/09 08:57:07;;;;;;;;;19.50;17.75;;;;;17.93;55.41;101906.59;4933116;28;45428;-88
2022/05/09 08:59:40;;;;;;;;;20.25;18.75;;;;;17.87;55.30;101875.53;4918397;28;46031;-88
2022/05/09 09:02:14;;;;;;;;;26.75;21.50;;;;;18.08;54.54;101900.16;4930665;28;45297;-87
2022/05/09 09:04:40;;;;;;;;;25.25;21.25;;;;;18.15;54.09;101890.66;4933532;28;45464;-87
2022/05/09 09:07:28;;;;;;;;;25.25;22.00;;;;;18.26;54.45;101889.94;4936467;28;45524;-87
2022/05/09 09:10:26;;;;;;;;;18.00;16.75;;;;;18.41;54.72;101882.59;4936144;28;47613;-86
2022/05/09 09:13:23;;;;;;;;;21.25;19.75;;;;;18.54;54.42;101891.50;4934360;28;45480;-89
2022/05/09 09:16:12;;;;;;;;;18.00;18.00;;;;;18.42;54.36;101850.09;4936292;28;45541;-82
2022/05/09 09:18:44;;;;;;;;;29.25;23.25;;;;;18.76;53.98;101890.88;4936270;28;45510;-81
2022/05/09 09:21:32;;;;;;;;;22.50;22.50;;;;;18.83;52.67;101885.88;4935548;28;49592;-81
2022/05/09 09:24:07;;;;;;;;;27.25;23.00;;;;;18.89;52.81;101875.50;4936216;28;45590;-81
2022/05/09 09:26:44;;;;;;;;;21.75;20.50;;;;;19.03;52.79;101882.59;4936281;28;45427;-79
2022/05/09 09:29:15;;;;;;;;;16.75;13.50;;;;;19.13;52.76;101866.59;4925049;28;45417;-80
2022/05/09 09:31:53;;;;;;;;;19.50;18.00;;;;;19.27;52.99;101871.81;5016473;28;45499;-79
2022/05/09 09:34:47;;;;;;;;;18.25;14.00;;;;;19.43;53.24;101874.22;5015288;28;45644;-80
2022/05/09 09:37:19;;;;;;;;;20.00;19.00;;;;;19.47;51.91;101859.50;4943779;28;45365;-81
2022/05/09 09:39:45;;;;;;;;;21.50;21.50;;;;;19.57;51.41;101855.13;4945971;28;45446;-80
2022/05/09 09:42:10;;;;;;;;;24.25;21.75;;;;;19.65;51.80;101850.97;4945269;28;51473;-80
2022/05/09 09:44:44;;;;;;;;;22.50;21.25;;;;;19.84;51.81;101870.22;4945852;28;47907;-80
2022/05/09 09:47:23;;;;;;;;;27.75;24.25;;;;;19.94;51.04;101875.78;4946306;28;45597;-81
2022/05/09 09:50:13;;;;;;;;;20.00;16.50;;;;;20.00;50.55;101883.41;4946393;28;45417;-79
2022/05/09 09:52:52;;;;;;;;;19.00;15.50;;;;;19.98;51.25;101864.59;4946026;28;46047;-81
2022/05/09 09:55:34;;;;;;;;;25.25;23.25;;;;;20.12;49.44;101858.13;4944010;28;45600;-81
2022/05/09 09:58:20;;;;;;;;;22.75;21.75;;;;;20.31;49.63;101878.31;4945426;28;46381;-81
2022/05/09 10:00:46;;;;;;;;;20.50;20.25;;;;;20.34;49.45;101860.00;4945628;28;45625;-80
2022/05/09 10:03:27;;;;;;;;;20.50;19.50;;;;;20.49;48.85;101873.28;4944704;28;46128;-79
2022/05/09 10:05:54;;;;;;;;;20.50;20.00;;;;;20.53;48.60;101872.06;4943780;28;45485;-80
2022/05/09 10:08:37;;;;;;;;;21.50;21.50;;;;;20.43;48.28;101856.56;4943776;28;45511;-81
2022/05/09 10:11:03;;;;;;;;;23.00;21.50;;;;;20.64;49.08;101866.69;4945932;28;45495;-81
2022/05/09 10:13:34;;;;;;;;;21.50;21.00;;;;;20.71;48.40;101867.91;4948365;28;45915;-81
2022/05/09 10:16:08;;;;;;;;;20.75;18.75;;;;;20.71;48.24;101848.97;5015148;28;45349;-81
2022/05/09 10:18:34;;;;;;;;;23.00;23.00;;;;;20.88;48.16;101862.94;5013803;28;45392;-81
2022/05/09 10:21:12;;;;;;;;;22.75;18.00;;;;;20.98;48.44;101853.94;5015195;28;45541;-80
2022/05/09 10:26:33;;;;;;;;;25.50;22.25;;;;;21.04;47.16;101820.94;5013665;28;45433;-80
2022/05/09 10:29:04;;;;;;;;;17.75;17.00;;;;;21.22;47.37;101847.50;5016080;28;45500;-80
2022/05/09 10:31:38;;;;;;;;;24.00;19.75;;;;;21.31;47.08;101852.13;5015467;28;45503;-80
2022/05/09 10:34:03;;;;;;;;;24.50;22.25;;;;;21.41;47.30;101844.13;5014931;28;46375;-80
2022/05/09 10:36:43;;;;;;;;;22.25;21.25;;;;;21.48;47.75;101838.06;5015018;28;45356;-79
2022/05/09 10:39:21;;;;;;;;;20.25;18.25;;;;;21.62;47.08;101836.88;5012481;28;45427;-80
2022/05/09 10:41:52;;;;;;;;;16.50;16.50;;;;;21.76;47.52;101838.38;5015022;28;45452;-79
2022/05/09 10:44:29;;;;;;;;;15.25;13.75;;;;;21.90;47.37;101834.50;5015054;28;45540;-79
2022/05/09 10:47:30;;;;;;;;;21.50;17.50;;;;;22.09;46.25;101831.03;5015753;28;45469;-79
2022/05/09 10:50:14;;;;;;;;;24.75;19.00;;;;;22.20;45.00;101831.00;4996672;28;45491;-79
2022/05/09 10:53:06;;;;;;;;;23.50;22.50;;;;;22.21;44.67;101807.44;5015253;28;45444;-80
2022/05/09 10:55:39;;;;;;;;;25.00;24.00;;;;;22.40;44.75;101815.66;5015366;28;45329;-80
2022/05/09 10:58:25;;;;;;;;;20.50;19.00;;;;;22.64;45.20;101817.16;5015468;28;45373;-80
2022/05/09 11:01:19;;;;;;;;;21.00;19.25;;;;;22.84;43.63;101815.34;5015321;28;45436;-80
2022/05/09 11:03:45;;;;;;;;;24.50;18.50;;;;;22.89;44.08;101803.06;5013712;28;45312;-79
2022/05/09 11:06:42;;;;;;;;;20.25;18.75;;;;;23.17;43.71;101814.13;5014942;28;46024;-79
2022/05/09 11:09:30;;;;;;;;;23.00;21.00;;;;;23.36;43.25;101807.84;4997513;28;45554;-82
2022/05/09 11:11:55;;;;;;;;;17.00;16.50;;;;;23.52;43.38;101805.41;5014053;28;45369;-77
2022/05/09 11:14:20;;;;;;;;;19.75;19.50;;;;;23.62;41.25;101813.56;5015278;28;45378;-78
2022/05/09 11:17:04;;;;;;;;;19.25;16.50;;;;;23.73;42.05;101807.97;5014600;28;48670;-78
2022/05/09 11:19:58;;;;;;;;;17.75;14.25;;;;;23.96;41.09;101815.81;5014755;28;45452;-79
2022/05/09 11:22:32;;;;;;;;;15.00;14.00;;;;;24.08;41.33;101809.19;5012514;28;45459;-81
2022/05/09 11:25:06;;;;;;;;;15.75;14.25;;;;;24.20;41.46;101810.72;4997503;28;45557;-80
2022/05/09 11:27:59;;;;;;;;;16.75;16.00;;;;;24.33;40.18;101806.78;5014516;28;46225;-80
2022/05/09 11:30:47;;;;;;;;;17.50;16.25;;;;;24.42;40.22;101801.31;5012148;28;45484;-81